sensor_id;sensor_type;location;lat;lon;timestamp;P1;durP1;ratioP1;P2;durP2;ratioP2
17937;SDS011;16051;53.024;8.630;2023-02-28T00:01:54;7.43;;;4.80;;
17937;SDS011;16051;53.024;8.630;2023-02-28T00:05:57;6.33;;;5.33;;
17937;SDS011;16051;53.024;8.630;2023-02-28T00:09:59;9.90;;;6.77;;
17937;SDS011;16051;53.024;8.630;2023-02-28T00:14:02;7.90;;;6.13;;
17937;SDS011;16051;53.024;8.630;2023-02-28T00:22:13;7.47;;;5.30;;
17937;SDS011;16051;53.024;8.630;2023-02-28T00:26:15;7.50;;;5.50;;
17937;SDS011;16051;53.024;8.630;2023-02-28T00:30:18;10.37;;;6.50;;
17937;SDS011;16051;53.024;8.630;2023-02-28T00:34:23;8.20;;;6.07;;
17937;SDS011;16051;53.024;8.630;2023-02-28T00:38:28;7.60;;;5.03;;
17937;SDS011;16051;53.024;8.630;2023-02-28T00:42:30;7.53;;;5.80;;
17937;SDS011;16051;53.024;8.630;2023-02-28T00:46:32;7.43;;;5.33;;
17937;SDS011;16051;53.024;8.630;2023-02-28T00:50:35;6.73;;;5.07;;
17937;SDS011;16051;53.024;8.630;2023-02-28T00:54:49;7.33;;;5.03;;
17937;SDS011;16051;53.024;8.630;2023-02-28T00:58:55;7.90;;;5.23;;
17937;SDS011;16051;53.024;8.630;2023-02-28T01:02:57;7.37;;;5.50;;
17937;SDS011;16051;53.024;8.630;2023-02-28T01:07:00;8.60;;;5.20;;
17937;SDS011;16051;53.024;8.630;2023-02-28T01:11:08;7.50;;;4.97;;
17937;SDS011;16051;53.024;8.630;2023-02-28T01:15:12;8.73;;;4.87;;
17937;SDS011;16051;53.024;8.630;2023-02-28T01:19:15;6.20;;;5.10;;
17937;SDS011;16051;53.024;8.630;2023-02-28T01:23:19;6.93;;;5.40;;
17937;SDS011;16051;53.024;8.630;2023-02-28T01:27:24;7.93;;;5.83;;
17937;SDS011;16051;53.024;8.630;2023-02-28T01:31:27;7.50;;;4.87;;
17937;SDS011;16051;53.024;8.630;2023-02-28T01:35:32;12.80;;;5.73;;
17937;SDS011;16051;53.024;8.630;2023-02-28T01:39:36;7.57;;;4.93;;
17937;SDS011;16051;53.024;8.630;2023-02-28T01:43:53;6.07;;;4.80;;
17937;SDS011;16051;53.024;8.630;2023-02-28T01:48:04;8.43;;;5.60;;
17937;SDS011;16051;53.024;8.630;2023-02-28T01:56:46;9.43;;;5.10;;
17937;SDS011;16051;53.024;8.630;2023-02-28T02:00:56;8.80;;;5.77;;
17937;SDS011;16051;53.024;8.630;2023-02-28T02:05:00;8.50;;;5.40;;
17937;SDS011;16051;53.024;8.630;2023-02-28T02:09:07;10.00;;;5.63;;
17937;SDS011;16051;53.024;8.630;2023-02-28T02:18:04;8.37;;;6.20;;
17937;SDS011;16051;53.024;8.630;2023-02-28T02:22:32;6.67;;;6.00;;
17937;SDS011;16051;53.024;8.630;2023-02-28T02:27:20;8.37;;;6.17;;
17937;SDS011;16051;53.024;8.630;2023-02-28T02:36:17;8.00;;;5.93;;
17937;SDS011;16051;53.024;8.630;2023-02-28T02:40:27;10.53;;;6.17;;
17937;SDS011;16051;53.024;8.630;2023-02-28T02:44:40;7.13;;;5.73;;
17937;SDS011;16051;53.024;8.630;2023-02-28T02:48:47;7.97;;;4.90;;
17937;SDS011;16051;53.024;8.630;2023-02-28T02:52:55;8.33;;;5.37;;
17937;SDS011;16051;53.024;8.630;2023-02-28T02:57:03;10.60;;;6.60;;
17937;SDS011;16051;53.024;8.630;2023-02-28T03:01:10;7.00;;;4.93;;
17937;SDS011;16051;53.024;8.630;2023-02-28T03:05:18;7.97;;;5.03;;
17937;SDS011;16051;53.024;8.630;2023-02-28T03:09:25;7.17;;;5.13;;
17937;SDS011;16051;53.024;8.630;2023-02-28T03:13:40;7.43;;;4.70;;
17937;SDS011;16051;53.024;8.630;2023-02-28T03:18:02;7.73;;;5.10;;
17937;SDS011;16051;53.024;8.630;2023-02-28T03:22:22;9.30;;;5.00;;
17937;SDS011;16051;53.024;8.630;2023-02-28T03:26:43;6.20;;;4.77;;
17937;SDS011;16051;53.024;8.630;2023-02-28T03:30:54;8.93;;;6.57;;
17937;SDS011;16051;53.024;8.630;2023-02-28T03:35:03;7.93;;;5.07;;
17937;SDS011;16051;53.024;8.630;2023-02-28T03:39:29;8.27;;;4.90;;
17937;SDS011;16051;53.024;8.630;2023-02-28T03:43:40;11.13;;;6.20;;
17937;SDS011;16051;53.024;8.630;2023-02-28T03:47:52;8.90;;;5.90;;
17937;SDS011;16051;53.024;8.630;2023-02-28T03:51:58;9.67;;;5.53;;
17937;SDS011;16051;53.024;8.630;2023-02-28T03:56:05;7.00;;;5.70;;
17937;SDS011;16051;53.024;8.630;2023-02-28T04:00:17;7.13;;;5.00;;
17937;SDS011;16051;53.024;8.630;2023-02-28T04:04:28;7.20;;;5.30;;
17937;SDS011;16051;53.024;8.630;2023-02-28T04:08:30;6.50;;;5.20;;
17937;SDS011;16051;53.024;8.630;2023-02-28T04:12:32;6.63;;;4.80;;
17937;SDS011;16051;53.024;8.630;2023-02-28T04:16:37;8.83;;;4.97;;
17937;SDS011;16051;53.024;8.630;2023-02-28T04:20:41;11.40;;;5.00;;
17937;SDS011;16051;53.024;8.630;2023-02-28T04:24:44;9.23;;;4.87;;
17937;SDS011;16051;53.024;8.630;2023-02-28T04:28:46;8.93;;;4.60;;
17937;SDS011;16051;53.024;8.630;2023-02-28T04:32:49;6.07;;;4.47;;
17937;SDS011;16051;53.024;8.630;2023-02-28T04:36:53;7.70;;;5.00;;
17937;SDS011;16051;53.024;8.630;2023-02-28T04:40:56;7.23;;;4.40;;
17937;SDS011;16051;53.024;8.630;2023-02-28T04:44:59;7.93;;;4.50;;
17937;SDS011;16051;53.024;8.630;2023-02-28T04:49:02;5.80;;;4.23;;
17937;SDS011;16051;53.024;8.630;2023-02-28T04:57:11;6.37;;;4.40;;
17937;SDS011;16051;53.024;8.630;2023-02-28T05:01:17;7.07;;;4.53;;
17937;SDS011;16051;53.024;8.630;2023-02-28T05:05:24;7.60;;;5.70;;
17937;SDS011;16051;53.024;8.630;2023-02-28T05:09:26;6.53;;;4.47;;
17937;SDS011;16051;53.024;8.630;2023-02-28T05:13:29;6.67;;;4.80;;
17937;SDS011;16051;53.024;8.630;2023-02-28T05:17:31;5.50;;;4.53;;
17937;SDS011;16051;53.024;8.630;2023-02-28T05:21:35;4.67;;;4.17;;
17937;SDS011;16051;53.024;8.630;2023-02-28T05:25:40;6.67;;;4.60;;
17937;SDS011;16051;53.024;8.630;2023-02-28T05:29:42;5.87;;;4.43;;
17937;SDS011;16051;53.024;8.630;2023-02-28T05:33:44;5.90;;;4.37;;
17937;SDS011;16051;53.024;8.630;2023-02-28T05:42:10;4.77;;;4.13;;
17937;SDS011;16051;53.024;8.630;2023-02-28T05:46:15;6.83;;;3.70;;
17937;SDS011;16051;53.024;8.630;2023-02-28T05:50:17;5.03;;;3.70;;
17937;SDS011;16051;53.024;8.630;2023-02-28T05:54:21;5.73;;;3.77;;
17937;SDS011;16051;53.024;8.630;2023-02-28T05:58:23;9.47;;;4.67;;
17937;SDS011;16051;53.024;8.630;2023-02-28T06:07:08;7.07;;;4.10;;
17937;SDS011;16051;53.024;8.630;2023-02-28T06:11:12;6.77;;;4.23;;
17937;SDS011;16051;53.024;8.630;2023-02-28T06:19:44;7.27;;;4.53;;
17937;SDS011;16051;53.024;8.630;2023-02-28T06:23:48;6.93;;;4.17;;
17937;SDS011;16051;53.024;8.630;2023-02-28T06:27:51;6.20;;;4.00;;
17937;SDS011;16051;53.024;8.630;2023-02-28T06:31:54;7.93;;;5.10;;
17937;SDS011;16051;53.024;8.630;2023-02-28T06:35:56;5.70;;;4.20;;
17937;SDS011;16051;53.024;8.630;2023-02-28T06:39:58;5.43;;;4.10;;
17937;SDS011;16051;53.024;8.630;2023-02-28T06:44:02;6.47;;;4.40;;
17937;SDS011;16051;53.024;8.630;2023-02-28T06:48:05;5.90;;;4.30;;
17937;SDS011;16051;53.024;8.630;2023-02-28T06:52:07;5.13;;;4.30;;
17937;SDS011;16051;53.024;8.630;2023-02-28T06:56:12;4.67;;;4.13;;
17937;SDS011;16051;53.024;8.630;2023-02-28T07:00:19;6.10;;;4.20;;
17937;SDS011;16051;53.024;8.630;2023-02-28T07:04:21;5.73;;;4.03;;
17937;SDS011;16051;53.024;8.630;2023-02-28T07:08:24;5.77;;;3.87;;
17937;SDS011;16051;53.024;8.630;2023-02-28T07:12:27;5.90;;;4.20;;
17937;SDS011;16051;53.024;8.630;2023-02-28T07:16:31;6.50;;;4.17;;
17937;SDS011;16051;53.024;8.630;2023-02-28T07:20:33;5.67;;;4.07;;
17937;SDS011;16051;53.024;8.630;2023-02-28T07:24:36;4.83;;;4.00;;
17937;SDS011;16051;53.024;8.630;2023-02-28T07:28:38;5.03;;;4.27;;
17937;SDS011;16051;53.024;8.630;2023-02-28T07:32:43;7.87;;;4.30;;
17937;SDS011;16051;53.024;8.630;2023-02-28T07:36:52;5.47;;;4.23;;
17937;SDS011;16051;53.024;8.630;2023-02-28T07:40:54;4.30;;;3.77;;
17937;SDS011;16051;53.024;8.630;2023-02-28T07:44:57;6.40;;;3.80;;
17937;SDS011;16051;53.024;8.630;2023-02-28T07:49:00;6.37;;;4.23;;
17937;SDS011;16051;53.024;8.630;2023-02-28T07:53:03;6.60;;;4.40;;
17937;SDS011;16051;53.024;8.630;2023-02-28T07:57:05;4.37;;;3.70;;
17937;SDS011;16051;53.024;8.630;2023-02-28T08:01:07;6.27;;;4.40;;
17937;SDS011;16051;53.024;8.630;2023-02-28T08:05:12;6.43;;;4.17;;
17937;SDS011;16051;53.024;8.630;2023-02-28T08:09:15;4.97;;;3.93;;
17937;SDS011;16051;53.024;8.630;2023-02-28T08:13:17;4.77;;;3.83;;
17937;SDS011;16051;53.024;8.630;2023-02-28T08:17:19;7.40;;;3.67;;
17937;SDS011;16051;53.024;8.630;2023-02-28T08:21:22;4.03;;;3.10;;
17937;SDS011;16051;53.024;8.630;2023-02-28T08:25:25;4.87;;;3.63;;
17937;SDS011;16051;53.024;8.630;2023-02-28T08:29:27;8.67;;;4.30;;
17937;SDS011;16051;53.024;8.630;2023-02-28T08:33:30;11.57;;;3.80;;
17937;SDS011;16051;53.024;8.630;2023-02-28T08:42:09;3.00;;;2.43;;
17937;SDS011;16051;53.024;8.630;2023-02-28T08:46:12;7.10;;;2.87;;
17937;SDS011;16051;53.024;8.630;2023-02-28T08:50:14;3.63;;;2.50;;
17937;SDS011;16051;53.024;8.630;2023-02-28T08:54:18;4.53;;;2.20;;
17937;SDS011;16051;53.024;8.630;2023-02-28T08:58:20;4.53;;;2.27;;
17937;SDS011;16051;53.024;8.630;2023-02-28T09:02:22;4.37;;;2.33;;
17937;SDS011;16051;53.024;8.630;2023-02-28T09:10:31;1.70;;;1.60;;
17937;SDS011;16051;53.024;8.630;2023-02-28T09:14:33;1.97;;;1.63;;
17937;SDS011;16051;53.024;8.630;2023-02-28T09:18:35;2.43;;;1.80;;
17937;SDS011;16051;53.024;8.630;2023-02-28T09:22:39;2.93;;;2.00;;
17937;SDS011;16051;53.024;8.630;2023-02-28T09:31:03;2.10;;;1.90;;
17937;SDS011;16051;53.024;8.630;2023-02-28T09:35:06;2.17;;;1.20;;
17937;SDS011;16051;53.024;8.630;2023-02-28T09:39:25;1.27;;;1.13;;
17937;SDS011;16051;53.024;8.630;2023-02-28T09:43:31;2.10;;;1.17;;
17937;SDS011;16051;53.024;8.630;2023-02-28T09:47:38;1.57;;;1.47;;
17937;SDS011;16051;53.024;8.630;2023-02-28T09:51:49;1.20;;;1.10;;
17937;SDS011;16051;53.024;8.630;2023-02-28T09:55:58;1.73;;;1.13;;
17937;SDS011;16051;53.024;8.630;2023-02-28T10:00:10;1.43;;;1.30;;
17937;SDS011;16051;53.024;8.630;2023-02-28T10:04:23;1.27;;;1.17;;
17937;SDS011;16051;53.024;8.630;2023-02-28T10:08:47;2.03;;;1.27;;
17937;SDS011;16051;53.024;8.630;2023-02-28T10:13:05;1.50;;;1.40;;
17937;SDS011;16051;53.024;8.630;2023-02-28T10:17:20;1.67;;;1.13;;
17937;SDS011;16051;53.024;8.630;2023-02-28T10:21:28;1.93;;;1.40;;
17937;SDS011;16051;53.024;8.630;2023-02-28T10:25:44;1.37;;;1.27;;
17937;SDS011;16051;53.024;8.630;2023-02-28T10:29:55;2.17;;;1.30;;
17937;SDS011;16051;53.024;8.630;2023-02-28T10:34:00;1.97;;;1.30;;
17937;SDS011;16051;53.024;8.630;2023-02-28T10:38:08;2.77;;;1.37;;
17937;SDS011;16051;53.024;8.630;2023-02-28T10:42:19;1.20;;;1.07;;
17937;SDS011;16051;53.024;8.630;2023-02-28T10:46:25;1.10;;;0.93;;
17937;SDS011;16051;53.024;8.630;2023-02-28T10:50:39;1.50;;;1.40;;
17937;SDS011;16051;53.024;8.630;2023-02-28T10:54:49;1.87;;;1.27;;
17937;SDS011;16051;53.024;8.630;2023-02-28T10:59:26;1.63;;;1.30;;
17937;SDS011;16051;53.024;8.630;2023-02-28T11:03:31;1.80;;;1.30;;
17937;SDS011;16051;53.024;8.630;2023-02-28T11:12:08;2.03;;;1.60;;
17937;SDS011;16051;53.024;8.630;2023-02-28T11:16:31;2.63;;;1.43;;
17937;SDS011;16051;53.024;8.630;2023-02-28T11:20:35;4.30;;;1.40;;
17937;SDS011;16051;53.024;8.630;2023-02-28T11:24:41;2.13;;;1.77;;
17937;SDS011;16051;53.024;8.630;2023-02-28T11:28:47;2.40;;;1.30;;
17937;SDS011;16051;53.024;8.630;2023-02-28T11:32:49;3.37;;;1.23;;
17937;SDS011;16051;53.024;8.630;2023-02-28T11:36:51;2.27;;;1.10;;
17937;SDS011;16051;53.024;8.630;2023-02-28T11:41:02;4.03;;;1.57;;
17937;SDS011;16051;53.024;8.630;2023-02-28T11:50:46;1.87;;;1.40;;
17937;SDS011;16051;53.024;8.630;2023-02-28T11:55:24;1.40;;;1.30;;
17937;SDS011;16051;53.024;8.630;2023-02-28T11:59:37;2.87;;;1.60;;
17937;SDS011;16051;53.024;8.630;2023-02-28T12:03:59;2.37;;;1.37;;
17937;SDS011;16051;53.024;8.630;2023-02-28T12:17:42;1.73;;;1.40;;
17937;SDS011;16051;53.024;8.630;2023-02-28T12:26:34;1.73;;;1.30;;
17937;SDS011;16051;53.024;8.630;2023-02-28T12:30:41;2.17;;;1.50;;
17937;SDS011;16051;53.024;8.630;2023-02-28T12:34:54;1.77;;;1.40;;
17937;SDS011;16051;53.024;8.630;2023-02-28T12:39:04;1.47;;;1.30;;
17937;SDS011;16051;53.024;8.630;2023-02-28T12:47:24;1.77;;;1.30;;
17937;SDS011;16051;53.024;8.630;2023-02-28T12:51:40;2.40;;;1.27;;
17937;SDS011;16051;53.024;8.630;2023-02-28T12:55:46;1.53;;;1.37;;
17937;SDS011;16051;53.024;8.630;2023-02-28T12:59:59;1.50;;;1.10;;
17937;SDS011;16051;53.024;8.630;2023-02-28T13:13:19;1.80;;;1.70;;
17937;SDS011;16051;53.024;8.630;2023-02-28T13:17:25;5.07;;;1.60;;
17937;SDS011;16051;53.024;8.630;2023-02-28T13:21:28;1.77;;;1.43;;
17937;SDS011;16051;53.024;8.630;2023-02-28T13:30:00;1.83;;;1.60;;
17937;SDS011;16051;53.024;8.630;2023-02-28T13:34:41;2.00;;;1.60;;
17937;SDS011;16051;53.024;8.630;2023-02-28T13:39:45;1.70;;;1.60;;
17937;SDS011;16051;53.024;8.630;2023-02-28T13:44:00;1.57;;;1.47;;
17937;SDS011;16051;53.024;8.630;2023-02-28T13:48:15;1.83;;;1.60;;
17937;SDS011;16051;53.024;8.630;2023-02-28T13:56:55;2.60;;;1.30;;
17937;SDS011;16051;53.024;8.630;2023-02-28T14:01:27;1.60;;;1.47;;
17937;SDS011;16051;53.024;8.630;2023-02-28T14:06:08;2.10;;;1.53;;
17937;SDS011;16051;53.024;8.630;2023-02-28T14:10:21;2.03;;;1.60;;
17937;SDS011;16051;53.024;8.630;2023-02-28T14:19:00;2.43;;;1.90;;
17937;SDS011;16051;53.024;8.630;2023-02-28T14:23:13;2.33;;;1.70;;
17937;SDS011;16051;53.024;8.630;2023-02-28T14:31:58;2.57;;;1.70;;
17937;SDS011;16051;53.024;8.630;2023-02-28T14:36:09;3.73;;;1.53;;
17937;SDS011;16051;53.024;8.630;2023-02-28T14:40:19;2.00;;;1.50;;
17937;SDS011;16051;53.024;8.630;2023-02-28T14:44:28;1.60;;;1.50;;
17937;SDS011;16051;53.024;8.630;2023-02-28T14:48:31;1.70;;;1.50;;
17937;SDS011;16051;53.024;8.630;2023-02-28T14:52:37;1.90;;;1.50;;
17937;SDS011;16051;53.024;8.630;2023-02-28T14:56:39;2.97;;;1.70;;
17937;SDS011;16051;53.024;8.630;2023-02-28T15:00:46;1.60;;;1.33;;
17937;SDS011;16051;53.024;8.630;2023-02-28T15:04:53;1.50;;;1.40;;
17937;SDS011;16051;53.024;8.630;2023-02-28T15:09:08;2.00;;;1.20;;
17937;SDS011;16051;53.024;8.630;2023-02-28T15:13:16;2.40;;;1.37;;
17937;SDS011;16051;53.024;8.630;2023-02-28T15:17:30;1.97;;;1.30;;
17937;SDS011;16051;53.024;8.630;2023-02-28T15:21:33;2.03;;;1.43;;
17937;SDS011;16051;53.024;8.630;2023-02-28T15:30:05;1.17;;;1.07;;
17937;SDS011;16051;53.024;8.630;2023-02-28T15:34:17;1.60;;;1.50;;
17937;SDS011;16051;53.024;8.630;2023-02-28T15:38:24;1.47;;;1.20;;
17937;SDS011;16051;53.024;8.630;2023-02-28T15:42:29;2.37;;;1.70;;
17937;SDS011;16051;53.024;8.630;2023-02-28T15:46:32;1.50;;;1.07;;
17937;SDS011;16051;53.024;8.630;2023-02-28T15:50:38;2.17;;;1.70;;
17937;SDS011;16051;53.024;8.630;2023-02-28T15:54:43;1.80;;;1.10;;
17937;SDS011;16051;53.024;8.630;2023-02-28T15:58:51;2.57;;;1.70;;
17937;SDS011;16051;53.024;8.630;2023-02-28T16:02:56;1.87;;;1.67;;
17937;SDS011;16051;53.024;8.630;2023-02-28T16:07:12;1.67;;;1.40;;
17937;SDS011;16051;53.024;8.630;2023-02-28T16:11:28;2.03;;;1.60;;
17937;SDS011;16051;53.024;8.630;2023-02-28T16:15:35;4.63;;;1.90;;
17937;SDS011;16051;53.024;8.630;2023-02-28T16:19:43;1.60;;;1.50;;
17937;SDS011;16051;53.024;8.630;2023-02-28T16:23:52;3.17;;;1.67;;
17937;SDS011;16051;53.024;8.630;2023-02-28T16:27:57;1.53;;;1.43;;
17937;SDS011;16051;53.024;8.630;2023-02-28T16:32:02;3.53;;;1.67;;
17937;SDS011;16051;53.024;8.630;2023-02-28T16:36:23;4.57;;;1.80;;
17937;SDS011;16051;53.024;8.630;2023-02-28T16:40:26;2.37;;;1.60;;
17937;SDS011;16051;53.024;8.630;2023-02-28T16:44:31;2.10;;;1.70;;
17937;SDS011;16051;53.024;8.630;2023-02-28T16:48:37;3.17;;;2.00;;
17937;SDS011;16051;53.024;8.630;2023-02-28T16:52:41;5.50;;;1.90;;
17937;SDS011;16051;53.024;8.630;2023-02-28T16:56:44;3.30;;;1.80;;
17937;SDS011;16051;53.024;8.630;2023-02-28T17:00:48;2.13;;;1.80;;
17937;SDS011;16051;53.024;8.630;2023-02-28T17:09:24;3.00;;;2.17;;
17937;SDS011;16051;53.024;8.630;2023-02-28T17:13:27;5.33;;;2.43;;
17937;SDS011;16051;53.024;8.630;2023-02-28T17:17:29;2.60;;;2.33;;
17937;SDS011;16051;53.024;8.630;2023-02-28T17:21:32;2.53;;;2.23;;
17937;SDS011;16051;53.024;8.630;2023-02-28T17:25:35;2.67;;;2.03;;
17937;SDS011;16051;53.024;8.630;2023-02-28T17:29:37;2.10;;;1.90;;
17937;SDS011;16051;53.024;8.630;2023-02-28T17:33:39;3.07;;;2.37;;
17937;SDS011;16051;53.024;8.630;2023-02-28T17:37:51;1.87;;;1.77;;
17937;SDS011;16051;53.024;8.630;2023-02-28T17:41:54;2.57;;;1.97;;
17937;SDS011;16051;53.024;8.630;2023-02-28T17:46:00;2.97;;;2.67;;
17937;SDS011;16051;53.024;8.630;2023-02-28T17:50:11;5.37;;;3.13;;
17937;SDS011;16051;53.024;8.630;2023-02-28T17:54:19;9.43;;;5.77;;
17937;SDS011;16051;53.024;8.630;2023-02-28T17:58:22;7.13;;;4.60;;
17937;SDS011;16051;53.024;8.630;2023-02-28T18:02:25;8.87;;;5.07;;
17937;SDS011;16051;53.024;8.630;2023-02-28T18:06:37;6.77;;;5.00;;
17937;SDS011;16051;53.024;8.630;2023-02-28T18:10:49;7.07;;;4.80;;
17937;SDS011;16051;53.024;8.630;2023-02-28T18:14:51;7.10;;;5.20;;
17937;SDS011;16051;53.024;8.630;2023-02-28T18:23:08;6.67;;;4.47;;
17937;SDS011;16051;53.024;8.630;2023-02-28T18:27:12;9.10;;;5.37;;
17937;SDS011;16051;53.024;8.630;2023-02-28T18:31:15;8.07;;;5.30;;
17937;SDS011;16051;53.024;8.630;2023-02-28T18:35:22;5.77;;;4.80;;
17937;SDS011;16051;53.024;8.630;2023-02-28T18:39:34;6.50;;;5.43;;
17937;SDS011;16051;53.024;8.630;2023-02-28T18:43:40;6.37;;;4.97;;
17937;SDS011;16051;53.024;8.630;2023-02-28T18:47:43;6.47;;;4.80;;
17937;SDS011;16051;53.024;8.630;2023-02-28T18:51:45;7.67;;;5.13;;
17937;SDS011;16051;53.024;8.630;2023-02-28T18:55:48;8.93;;;6.33;;
17937;SDS011;16051;53.024;8.630;2023-02-28T19:00:05;8.10;;;5.93;;
17937;SDS011;16051;53.024;8.630;2023-02-28T19:04:09;7.63;;;4.77;;
17937;SDS011;16051;53.024;8.630;2023-02-28T19:08:13;8.57;;;4.60;;
17937;SDS011;16051;53.024;8.630;2023-02-28T19:12:16;8.63;;;6.17;;
17937;SDS011;16051;53.024;8.630;2023-02-28T19:16:21;14.60;;;8.40;;
17937;SDS011;16051;53.024;8.630;2023-02-28T19:20:32;12.80;;;7.03;;
17937;SDS011;16051;53.024;8.630;2023-02-28T19:24:34;10.37;;;7.03;;
17937;SDS011;16051;53.024;8.630;2023-02-28T19:28:36;10.80;;;7.67;;
17937;SDS011;16051;53.024;8.630;2023-02-28T19:32:42;9.67;;;7.03;;
17937;SDS011;16051;53.024;8.630;2023-02-28T19:36:44;7.57;;;4.67;;
17937;SDS011;16051;53.024;8.630;2023-02-28T19:40:46;10.27;;;5.40;;
17937;SDS011;16051;53.024;8.630;2023-02-28T19:44:48;6.07;;;3.90;;
17937;SDS011;16051;53.024;8.630;2023-02-28T19:48:53;5.90;;;3.83;;
17937;SDS011;16051;53.024;8.630;2023-02-28T19:52:56;4.50;;;3.90;;
17937;SDS011;16051;53.024;8.630;2023-02-28T19:56:58;5.50;;;3.83;;
17937;SDS011;16051;53.024;8.630;2023-02-28T20:01:05;6.13;;;4.00;;
17937;SDS011;16051;53.024;8.630;2023-02-28T20:05:10;4.83;;;3.80;;
17937;SDS011;16051;53.024;8.630;2023-02-28T20:09:12;7.23;;;3.90;;
17937;SDS011;16051;53.024;8.630;2023-02-28T20:13:15;6.77;;;3.70;;
17937;SDS011;16051;53.024;8.630;2023-02-28T20:17:19;5.20;;;4.23;;
17937;SDS011;16051;53.024;8.630;2023-02-28T20:21:24;5.67;;;4.20;;
17937;SDS011;16051;53.024;8.630;2023-02-28T20:25:26;7.57;;;4.07;;
17937;SDS011;16051;53.024;8.630;2023-02-28T20:29:29;6.90;;;4.57;;
17937;SDS011;16051;53.024;8.630;2023-02-28T20:33:31;9.33;;;6.20;;
17937;SDS011;16051;53.024;8.630;2023-02-28T20:37:34;7.67;;;5.20;;
17937;SDS011;16051;53.024;8.630;2023-02-28T20:41:37;6.53;;;4.80;;
17937;SDS011;16051;53.024;8.630;2023-02-28T20:45:44;7.20;;;5.00;;
17937;SDS011;16051;53.024;8.630;2023-02-28T20:49:51;7.23;;;4.93;;
17937;SDS011;16051;53.024;8.630;2023-02-28T20:54:12;7.87;;;5.97;;
17937;SDS011;16051;53.024;8.630;2023-02-28T20:58:15;7.10;;;5.40;;
17937;SDS011;16051;53.024;8.630;2023-02-28T21:02:17;8.53;;;5.90;;
17937;SDS011;16051;53.024;8.630;2023-02-28T21:06:22;9.70;;;5.63;;
17937;SDS011;16051;53.024;8.630;2023-02-28T21:10:28;8.80;;;5.10;;
17937;SDS011;16051;53.024;8.630;2023-02-28T21:14:31;7.10;;;4.77;;
17937;SDS011;16051;53.024;8.630;2023-02-28T21:18:33;8.03;;;5.03;;
17937;SDS011;16051;53.024;8.630;2023-02-28T21:22:37;7.17;;;4.47;;
17937;SDS011;16051;53.024;8.630;2023-02-28T21:26:41;8.60;;;4.67;;
17937;SDS011;16051;53.024;8.630;2023-02-28T21:30:44;7.97;;;5.23;;
17937;SDS011;16051;53.024;8.630;2023-02-28T21:34:53;8.33;;;5.90;;
17937;SDS011;16051;53.024;8.630;2023-02-28T21:38:56;8.03;;;5.27;;
17937;SDS011;16051;53.024;8.630;2023-02-28T21:43:01;4.83;;;3.80;;
17937;SDS011;16051;53.024;8.630;2023-02-28T21:47:04;7.80;;;5.40;;
17937;SDS011;16051;53.024;8.630;2023-02-28T21:51:14;6.67;;;4.60;;
17937;SDS011;16051;53.024;8.630;2023-02-28T21:59:45;6.03;;;4.70;;
17937;SDS011;16051;53.024;8.630;2023-02-28T22:03:47;8.40;;;5.57;;
17937;SDS011;16051;53.024;8.630;2023-02-28T22:07:52;8.73;;;5.13;;
17937;SDS011;16051;53.024;8.630;2023-02-28T22:11:54;8.13;;;5.50;;
17937;SDS011;16051;53.024;8.630;2023-02-28T22:16:00;8.70;;;5.53;;
17937;SDS011;16051;53.024;8.630;2023-02-28T22:20:04;7.00;;;5.50;;
17937;SDS011;16051;53.024;8.630;2023-02-28T22:24:08;6.17;;;5.13;;
17937;SDS011;16051;53.024;8.630;2023-02-28T22:28:11;8.30;;;5.37;;
17937;SDS011;16051;53.024;8.630;2023-02-28T22:32:13;8.73;;;5.40;;
17937;SDS011;16051;53.024;8.630;2023-02-28T22:36:16;7.13;;;5.43;;
17937;SDS011;16051;53.024;8.630;2023-02-28T22:40:20;8.93;;;5.30;;
17937;SDS011;16051;53.024;8.630;2023-02-28T22:44:23;6.93;;;5.27;;
17937;SDS011;16051;53.024;8.630;2023-02-28T22:48:25;6.10;;;4.93;;
17937;SDS011;16051;53.024;8.630;2023-02-28T22:52:27;7.57;;;5.33;;
17937;SDS011;16051;53.024;8.630;2023-02-28T22:56:31;7.03;;;5.43;;
17937;SDS011;16051;53.024;8.630;2023-02-28T23:00:33;6.47;;;4.73;;
17937;SDS011;16051;53.024;8.630;2023-02-28T23:04:35;7.20;;;5.07;;
17937;SDS011;16051;53.024;8.630;2023-02-28T23:08:37;9.00;;;5.60;;
17937;SDS011;16051;53.024;8.630;2023-02-28T23:12:41;7.67;;;4.80;;
17937;SDS011;16051;53.024;8.630;2023-02-28T23:16:53;6.67;;;4.73;;
17937;SDS011;16051;53.024;8.630;2023-02-28T23:21:12;6.03;;;4.83;;
17937;SDS011;16051;53.024;8.630;2023-02-28T23:25:14;7.60;;;4.93;;
17937;SDS011;16051;53.024;8.630;2023-02-28T23:29:19;7.03;;;4.70;;
17937;SDS011;16051;53.024;8.630;2023-02-28T23:33:22;6.17;;;4.93;;
17937;SDS011;16051;53.024;8.630;2023-02-28T23:37:25;5.67;;;4.60;;
17937;SDS011;16051;53.024;8.630;2023-02-28T23:41:27;8.30;;;4.87;;
17937;SDS011;16051;53.024;8.630;2023-02-28T23:45:31;6.80;;;4.93;;
17937;SDS011;16051;53.024;8.630;2023-02-28T23:49:33;5.97;;;4.73;;
17937;SDS011;16051;53.024;8.630;2023-02-28T23:53:35;6.13;;;4.37;;
17937;SDS011;16051;53.024;8.630;2023-02-28T23:57:56;5.37;;;4.57;;
